createdAt,value
2022-12-14T00:07:09.169Z,969.43
2022-12-14T00:22:11.572Z,969.39
2022-12-14T00:37:13.862Z,969.48
2022-12-14T00:52:16.224Z,969.58
2022-12-14T01:07:18.438Z,969.91
2022-12-14T01:22:20.655Z,969.98
2022-12-14T01:37:22.852Z,969.84
2022-12-14T01:52:25.071Z,969.76
2022-12-14T02:07:27.313Z,969.84
2022-12-14T02:22:29.600Z,969.79
2022-12-14T02:37:31.786Z,969.85
2022-12-14T02:52:34.176Z,969.9
2022-12-14T03:07:36.445Z,969.95
2022-12-14T03:22:38.655Z,969.98
2022-12-14T03:37:40.898Z,970.01
2022-12-14T03:52:43.133Z,970.01
2022-12-14T04:07:45.317Z,969.96
2022-12-14T04:22:50.792Z,970.12
2022-12-14T04:37:52.992Z,970.25
2022-12-14T04:52:55.217Z,970.46
2022-12-14T05:07:57.400Z,970.62
2022-12-14T05:22:59.618Z,970.78
2022-12-14T05:38:01.841Z,970.84
2022-12-14T05:53:04.151Z,970.75
2022-12-14T06:08:06.338Z,970.92
2022-12-14T06:23:08.607Z,971.04
2022-12-14T06:38:10.843Z,971.23
2022-12-14T06:53:13.040Z,971.24
2022-12-14T07:08:15.524Z,971.22
2022-12-14T07:23:17.805Z,971.22
2022-12-14T07:38:20.272Z,971.2
2022-12-14T07:53:22.707Z,971.24
2022-12-14T08:08:24.917Z,971.27
2022-12-14T08:23:27.637Z,971.24
2022-12-14T08:38:30.370Z,971.24
2022-12-14T08:53:32.851Z,971.18
2022-12-14T09:08:35.320Z,971.3
2022-12-14T09:23:37.723Z,971.51
2022-12-14T09:38:40.775Z,971.73
2022-12-14T09:53:45.480Z,971.96
2022-12-14T10:08:54.214Z,971.96
2022-12-14T10:23:56.960Z,972.07
2022-12-14T10:38:59.185Z,972.14
2022-12-14T10:54:01.413Z,972.22
2022-12-14T11:09:03.615Z,972.15
2022-12-14T11:24:05.791Z,972.16
2022-12-14T11:39:07.989Z,972.23
2022-12-14T11:54:10.188Z,972.26
2022-12-14T12:09:12.549Z,972.43
2022-12-14T12:24:14.731Z,972.31
2022-12-14T12:39:16.935Z,972.15
2022-12-14T12:54:19.125Z,972.19
2022-12-14T13:09:21.339Z,972.37
2022-12-14T13:24:23.569Z,972.41
2022-12-14T13:39:25.760Z,972.48
2022-12-14T13:54:28.005Z,972.44
2022-12-14T14:09:30.257Z,972.65
2022-12-14T14:24:32.462Z,972.81
2022-12-14T14:39:56.691Z,973.01
2022-12-14T14:55:43.546Z,973.25
2022-12-14T15:10:54.065Z,973.3
2022-12-14T15:25:56.272Z,973.29
2022-12-14T15:40:58.692Z,973.33
2022-12-14T15:56:05.283Z,973.73
2022-12-14T16:11:10.775Z,973.95
2022-12-14T16:26:12.990Z,974.15
2022-12-14T16:41:15.233Z,974.29
2022-12-14T16:56:17.448Z,974.61
2022-12-14T17:11:19.697Z,974.66
2022-12-14T17:26:21.943Z,974.89
2022-12-14T17:41:24.127Z,974.91
2022-12-14T17:56:26.327Z,974.81
2022-12-14T18:11:28.519Z,974.78
2022-12-14T18:26:30.967Z,974.77
2022-12-14T18:41:35.266Z,974.8
2022-12-14T18:56:39.281Z,974.82
2022-12-14T19:11:41.690Z,974.69
2022-12-14T19:26:49.665Z,974.66
2022-12-14T19:41:55.045Z,974.62
2022-12-14T19:56:59.653Z,974.5
2022-12-14T20:12:02.869Z,974.54
2022-12-14T20:27:05.163Z,974.51
2022-12-14T20:42:07.630Z,974.33
2022-12-14T20:57:09.909Z,974.16
2022-12-14T21:12:12.162Z,974.27
2022-12-14T21:27:14.374Z,974.29
2022-12-14T21:42:16.558Z,974.33
2022-12-14T21:57:18.878Z,974.63
2022-12-14T22:12:21.047Z,974.84
2022-12-14T22:27:23.246Z,974.89
2022-12-14T22:42:25.469Z,975.16
2022-12-14T22:57:27.666Z,975.4
2022-12-14T23:12:29.939Z,975.47
2022-12-14T23:27:32.247Z,975.64
2022-12-14T23:42:34.449Z,975.73
2022-12-14T23:57:36.781Z,975.97
